KSBA/SBA METAR and TAF weather

Enter ICAO airport designator
Station Type Date Time Source
KSBA METAR 2020/01/22 20:53 UTC NOAA

KSBA 222053Z 28010KT 10SM FEW035 21/11 A3010 RMK AO2 SLP193 T02110111 58028


Station Type Date Time Source
KSBA Decoded METAR 2020/01/22 20:53 UTC NOAA

SANTA BARBARA MUNICIPAL, CA, United States (KSBA) 34-26N 119-51W 3M
Jan 22, 2020 - 03:53 PM EST / 2020.01.22 2053 UTC
Wind: from the W (280 degrees) at 12 MPH (10 KT):0
Visibility: 10 mile(s):0
Sky conditions: mostly clear
Temperature: 70.0 F (21.1 C)
Dew Point: 52.0 F (11.1 C)
Relative Humidity: 52%
Pressure (altimeter): 30.1 in. Hg (1019 hPa)
Pressure tendency: 0.08 inches (2.8 hPa) lower than three hours ago
ob: KSBA 222053Z 28010KT 10SM FEW035 21/11 A3010 RMK AO2 SLP193 T02110111 58028
cycle: 21

Station Type Date Time Source
KSBA TAF 2020/01/22 18:28 UTC NOAA

TAF KSBA 221726Z 2218/2318 17006KT P6SM BKN200
FM222100 23008KT P6SM SCT200
FM230200 VRB03KT P6SM SCT200

Example: see airport list